createdAt,value
2023-06-17T00:01:30.841Z,101726.80
2023-06-17T00:04:00.444Z,101726.04
2023-06-17T00:06:29.835Z,101724.14
2023-06-17T00:09:00.708Z,101728.53
2023-06-17T00:11:30.252Z,101719.29
2023-06-17T00:14:01.261Z,101722.28
2023-06-17T00:16:32.244Z,101723.32
2023-06-17T00:19:01.577Z,101728.48
2023-06-17T00:21:30.933Z,101719.91
2023-06-17T00:24:00.352Z,101725.16
2023-06-17T00:26:29.766Z,101725.27
2023-06-17T00:28:59.131Z,101722.42
2023-06-17T00:31:28.769Z,101712.03
2023-06-17T00:33:58.173Z,101713.22
2023-06-17T00:36:27.560Z,101711.12
2023-06-17T00:38:57.192Z,101707.70
2023-06-17T00:41:27.035Z,101714.19
2023-06-17T00:43:57.023Z,101709.70
2023-06-17T00:46:32.228Z,101710.64
2023-06-17T00:49:01.764Z,101703.92
2023-06-17T00:51:33.004Z,101700.71
2023-06-17T00:54:06.260Z,101703.84
2023-06-17T00:56:38.230Z,101704.89
2023-06-17T00:59:07.588Z,101706.92
2023-06-17T01:01:37.651Z,101701.56
2023-06-17T01:04:08.255Z,101711.32
2023-06-17T01:07:10.965Z,101700.91
2023-06-17T01:09:42.663Z,101708.88
2023-06-17T01:12:14.750Z,101697.22
2023-06-17T01:14:45.102Z,101701.05
2023-06-17T01:17:16.551Z,101704.61
2023-06-17T01:19:47.579Z,101697.09
2023-06-17T01:22:18.941Z,101696.19
2023-06-17T01:24:50.535Z,101696.39
2023-06-17T01:27:21.540Z,101697.77
2023-06-17T01:29:51.570Z,101701.06
2023-06-17T01:32:21.023Z,101703.07
2023-06-17T01:35:11.604Z,101696.07
2023-06-17T01:37:44.126Z,101702.14
2023-06-17T01:40:14.940Z,101704.59
2023-06-17T01:42:47.834Z,101698.55
2023-06-17T01:45:18.875Z,101698.14
2023-06-17T01:47:48.932Z,101697.22
2023-06-17T01:50:21.117Z,101700.34
2023-06-17T01:52:50.888Z,101703.64
2023-06-17T01:55:20.817Z,101701.13
2023-06-17T01:57:50.368Z,101709.76
2023-06-17T02:00:19.990Z,101702.62
2023-06-17T02:02:56.340Z,101705.45
2023-06-17T02:05:26.367Z,101707.96
2023-06-17T02:07:59.773Z,101701.20
2023-06-17T02:10:30.821Z,101699.88
2023-06-17T02:13:02.015Z,101694.57
2023-06-17T02:15:34.344Z,101696.23
2023-06-17T02:18:04.135Z,101689.91
2023-06-17T02:20:33.598Z,101693.20
2023-06-17T02:23:03.928Z,101691.59
2023-06-17T02:25:33.255Z,101687.56
2023-06-17T02:28:02.584Z,101682.53
2023-06-17T02:30:32.584Z,101683.08
2023-06-17T02:33:03.612Z,101679.58
2023-06-17T02:35:33.044Z,101678.83
2023-06-17T02:38:02.443Z,101677.27
2023-06-17T02:40:32.135Z,101679.81
2023-06-17T02:43:01.437Z,101676.18
2023-06-17T02:45:30.866Z,101678.94
2023-06-17T02:48:00.592Z,101671.95
2023-06-17T02:50:30.822Z,101670.45
2023-06-17T02:53:00.169Z,101667.87
2023-06-17T02:55:31.254Z,101659.92
2023-06-17T02:58:02.306Z,101661.11
2023-06-17T03:00:34.032Z,101661.48
2023-06-17T03:03:03.466Z,101656.09
2023-06-17T03:05:32.963Z,101654.16
2023-06-17T03:08:02.349Z,101658.23
2023-06-17T03:10:31.935Z,101660.13
2023-06-17T03:13:03.277Z,101658.02
2023-06-17T03:15:33.837Z,101656.46
2023-06-17T03:18:05.163Z,101659.62
2023-06-17T03:20:36.037Z,101661.20
2023-06-17T03:23:06.197Z,101659.59
2023-06-17T03:25:35.588Z,101654.61
2023-06-17T03:28:06.185Z,101656.27
2023-06-17T03:30:36.005Z,101658.13
2023-06-17T03:33:05.542Z,101654.88
2023-06-17T03:35:35.641Z,101651.36
2023-06-17T03:38:05.061Z,101651.12
2023-06-17T03:40:34.556Z,101653.50
2023-06-17T03:43:04.418Z,101653.02
2023-06-17T03:45:36.767Z,101653.87
2023-06-17T03:48:07.874Z,101651.48
2023-06-17T03:50:37.321Z,101657.86
2023-06-17T03:53:09.246Z,101656.80
2023-06-17T03:55:40.822Z,101651.78
2023-06-17T03:58:11.885Z,101652.30
2023-06-17T04:00:42.118Z,101652.09
2023-06-17T04:03:12.992Z,101651.69
2023-06-17T04:05:43.753Z,101646.87
2023-06-17T04:08:13.295Z,101647.42
2023-06-17T04:10:42.620Z,101651.80
2023-06-17T04:13:12.062Z,101653.40
2023-06-17T04:15:41.432Z,101651.02
2023-06-17T04:18:12.105Z,101650.23
2023-06-17T04:20:41.470Z,101657.07
2023-06-17T04:23:11.193Z,101656.45
2023-06-17T04:25:41.740Z,101654.20
2023-06-17T04:28:13.454Z,101654.17
2023-06-17T04:30:44.604Z,101662.67
2023-06-17T04:33:17.967Z,101657.41
2023-06-17T04:35:48.363Z,101665.02
2023-06-17T04:38:18.019Z,101655.02
2023-06-17T04:40:48.135Z,101664.80
2023-06-17T04:43:18.247Z,101662.23
2023-06-17T04:45:47.588Z,101659.32
2023-06-17T04:48:17.195Z,101661.27
2023-06-17T04:50:46.845Z,101661.28
2023-06-17T04:53:16.251Z,101659.44
2023-06-17T04:55:45.926Z,101658.72
2023-06-17T04:58:16.648Z,101662.88
2023-06-17T05:00:47.687Z,101663.47
2023-06-17T05:03:18.787Z,101658.02
2023-06-17T05:05:48.861Z,101662.68
2023-06-17T05:08:18.593Z,101660.86
2023-06-17T05:10:47.878Z,101658.24
2023-06-17T05:13:17.521Z,101655.04
2023-06-17T05:15:46.868Z,101660.80
2023-06-17T05:18:16.357Z,101660.94
2023-06-17T05:20:46.225Z,101661.01
2023-06-17T05:23:15.622Z,101671.70
2023-06-17T05:25:45.802Z,101671.14
2023-06-17T05:28:15.168Z,101672.55
2023-06-17T05:30:44.672Z,101673.76
2023-06-17T05:33:15.833Z,101669.50
2023-06-17T05:35:45.399Z,101668.50
2023-06-17T05:38:14.873Z,101663.94
2023-06-17T05:40:44.318Z,101671.52
2023-06-17T05:43:14.228Z,101666.13
2023-06-17T05:45:44.179Z,101671.20
2023-06-17T05:48:14.020Z,101669.16
2023-06-17T05:50:43.453Z,101663.03
2023-06-17T05:53:13.029Z,101661.50
2023-06-17T05:55:42.434Z,101661.21
2023-06-17T05:58:12.181Z,101661.05
2023-06-17T06:00:43.269Z,101663.43
2023-06-17T06:03:12.646Z,101663.23
2023-06-17T06:05:41.969Z,101664.63
2023-06-17T06:08:11.370Z,101658.41
2023-06-17T06:10:40.920Z,101659.08
2023-06-17T06:13:10.614Z,101661.08
2023-06-17T06:15:40.028Z,101666.25
2023-06-17T06:18:09.577Z,101667.58
2023-06-17T06:20:38.928Z,101665.72
2023-06-17T06:23:10.204Z,101668.02
2023-06-17T06:25:39.636Z,101665.70
2023-06-17T06:28:10.035Z,101668.74
2023-06-17T06:30:40.408Z,101668.75
2023-06-17T06:33:10.514Z,101670.23
2023-06-17T06:35:39.989Z,101671.58
2023-06-17T06:38:11.017Z,101670.08
2023-06-17T06:40:41.658Z,101673.77
2023-06-17T06:43:11.454Z,101666.25
2023-06-17T06:45:51.943Z,101664.06
2023-06-17T06:48:21.488Z,101664.41
2023-06-17T06:50:51.930Z,101663.05
2023-06-17T06:53:23.954Z,101661.08
2023-06-17T06:55:54.103Z,101658.21
2023-06-17T06:58:23.668Z,101656.34
2023-06-17T07:00:53.639Z,101656.00
2023-06-17T07:03:23.546Z,101660.00
2023-06-17T07:05:53.264Z,101655.17
2023-06-17T07:08:23.243Z,101657.00
2023-06-17T07:10:52.750Z,101657.46
2023-06-17T07:13:23.774Z,101656.13
2023-06-17T07:15:53.807Z,101653.59
2023-06-17T07:18:24.491Z,101657.09
2023-06-17T07:20:53.844Z,101661.92
2023-06-17T07:23:23.246Z,101662.94
2023-06-17T07:25:55.896Z,101657.53
2023-06-17T07:28:24.442Z,101657.78
2023-06-17T07:30:54.717Z,101659.26
2023-06-17T07:33:24.295Z,101657.57
2023-06-17T07:35:54.109Z,101660.37
2023-06-17T07:38:24.927Z,101659.71
2023-06-17T07:40:54.358Z,101657.39
2023-06-17T07:43:23.664Z,101663.28
2023-06-17T07:45:53.122Z,101658.10
2023-06-17T07:48:22.427Z,101667.56
2023-06-17T07:50:51.877Z,101666.33
2023-06-17T07:53:21.264Z,101664.58
2023-06-17T07:55:50.572Z,101660.20
2023-06-17T07:58:19.900Z,101661.66
2023-06-17T08:00:49.308Z,101662.52
2023-06-17T08:03:18.804Z,101654.06
2023-06-17T08:05:48.381Z,101659.48
2023-06-17T08:08:17.855Z,101661.59
2023-06-17T08:10:47.243Z,101664.41
2023-06-17T08:13:16.565Z,101661.02
2023-06-17T08:15:45.876Z,101658.28
2023-06-17T08:18:15.321Z,101658.94
2023-06-17T08:20:44.681Z,101656.39
2023-06-17T08:23:14.062Z,101656.39
2023-06-17T08:25:43.522Z,101646.28
2023-06-17T08:28:12.852Z,101652.84
2023-06-17T08:30:42.196Z,101655.77
2023-06-17T08:33:11.879Z,101659.28
2023-06-17T08:35:41.282Z,101653.41
2023-06-17T08:38:10.635Z,101647.89
2023-06-17T08:40:40.814Z,101649.98
2023-06-17T08:43:11.164Z,101653.25
2023-06-17T08:45:41.288Z,101651.47
2023-06-17T08:48:11.429Z,101651.66
2023-06-17T08:50:41.605Z,101650.89
2023-06-17T08:53:11.414Z,101651.85
2023-06-17T08:55:53.162Z,101651.30
2023-06-17T08:58:22.539Z,101650.77
2023-06-17T09:00:52.260Z,101649.49
2023-06-17T09:03:23.289Z,101641.92
2023-06-17T09:05:54.640Z,101640.58
2023-06-17T09:08:24.611Z,101640.66
2023-06-17T09:10:53.989Z,101644.48
2023-06-17T09:13:23.293Z,101648.45
2023-06-17T09:15:52.685Z,101642.30
2023-06-17T09:18:22.956Z,101644.14
2023-06-17T09:20:55.672Z,101643.30
2023-06-17T09:23:26.821Z,101643.46
2023-06-17T09:26:03.906Z,101638.34
2023-06-17T09:28:33.723Z,101642.61
2023-06-17T09:31:05.450Z,101647.98
2023-06-17T09:33:34.856Z,101646.95
2023-06-17T09:36:09.753Z,101644.80
2023-06-17T09:38:40.099Z,101644.64
2023-06-17T09:41:09.424Z,101637.03
2023-06-17T09:43:41.552Z,101642.08
2023-06-17T09:46:12.702Z,101640.70
2023-06-17T09:48:42.986Z,101640.34
2023-06-17T09:51:13.366Z,101638.85
2023-06-17T09:53:43.285Z,101642.09
2023-06-17T09:56:14.495Z,101632.92
2023-06-17T09:58:45.218Z,101634.30
2023-06-17T10:01:15.091Z,101622.77
2023-06-17T10:03:44.701Z,101633.31
2023-06-17T10:06:17.427Z,101631.73
2023-06-17T10:08:51.878Z,101628.28
2023-06-17T10:11:22.252Z,101631.59
2023-06-17T10:14:06.934Z,101632.36
2023-06-17T10:16:39.774Z,101625.94
2023-06-17T10:19:10.739Z,101619.03
2023-06-17T10:21:42.883Z,101625.41
2023-06-17T10:24:12.608Z,101623.17
2023-06-17T10:26:41.960Z,101619.77
2023-06-17T10:29:12.870Z,101619.41
2023-06-17T10:31:44.079Z,101624.19
2023-06-17T10:34:18.082Z,101618.31
2023-06-17T10:36:55.119Z,101611.39
2023-06-17T10:39:24.505Z,101618.64
2023-06-17T10:41:57.199Z,101610.02
2023-06-17T10:44:32.042Z,101602.38
2023-06-17T10:47:01.545Z,101603.97
2023-06-17T10:49:43.911Z,101596.05
2023-06-17T10:52:16.991Z,101605.34
2023-06-17T10:54:56.706Z,101598.52
2023-06-17T10:57:36.895Z,101599.31
2023-06-17T11:00:10.745Z,101599.02
2023-06-17T11:02:41.444Z,101597.67
2023-06-17T11:05:11.350Z,101592.84
2023-06-17T11:07:40.636Z,101592.88
2023-06-17T11:10:10.264Z,101592.56
2023-06-17T11:12:40.706Z,101581.68
2023-06-17T11:15:10.556Z,101580.58
2023-06-17T11:17:39.992Z,101585.16
2023-06-17T11:20:10.529Z,101579.77
2023-06-17T11:22:40.749Z,101578.33
2023-06-17T11:25:12.060Z,101578.39
2023-06-17T11:27:41.870Z,101577.48
2023-06-17T11:30:14.049Z,101569.66
2023-06-17T11:32:43.839Z,101559.23
2023-06-17T11:35:13.555Z,101562.34
2023-06-17T11:37:43.658Z,101558.17
2023-06-17T11:40:13.966Z,101558.73
2023-06-17T11:42:43.538Z,101562.05
2023-06-17T11:45:12.922Z,101559.89
2023-06-17T11:47:42.268Z,101555.74
2023-06-17T11:50:12.498Z,101551.77
2023-06-17T11:52:41.827Z,101545.35
2023-06-17T11:55:16.368Z,101541.39
2023-06-17T11:57:45.880Z,101546.25
2023-06-17T12:00:16.637Z,101540.22
2023-06-17T12:02:46.150Z,101535.77
2023-06-17T12:05:15.776Z,101537.05
2023-06-17T12:07:47.197Z,101541.59
2023-06-17T12:10:16.561Z,101540.91
2023-06-17T12:12:48.192Z,101539.67
2023-06-17T12:15:17.900Z,101540.77
2023-06-17T12:17:52.592Z,101540.15
2023-06-17T12:20:23.022Z,101530.23
2023-06-17T12:22:54.207Z,101531.23
2023-06-17T12:25:24.588Z,101527.45
2023-06-17T12:27:54.162Z,101520.43
2023-06-17T12:30:23.548Z,101525.31
2023-06-17T12:32:52.991Z,101517.33
2023-06-17T12:35:23.945Z,101520.14
2023-06-17T12:37:57.162Z,101520.02
2023-06-17T12:40:28.499Z,101514.38
2023-06-17T12:42:57.849Z,101517.20
2023-06-17T12:45:28.320Z,101514.24
2023-06-17T12:47:57.865Z,101514.41
2023-06-17T12:50:27.385Z,101513.91
2023-06-17T12:52:56.699Z,101507.91
2023-06-17T12:55:26.022Z,101507.98
2023-06-17T12:57:55.395Z,101507.91
2023-06-17T13:00:24.816Z,101507.91
2023-06-17T13:02:55.868Z,101503.12
2023-06-17T13:05:25.272Z,101499.43
2023-06-17T13:07:54.975Z,101501.77
2023-06-17T13:10:24.695Z,101505.39
2023-06-17T13:12:54.756Z,101508.20
2023-06-17T13:15:25.032Z,101509.11
2023-06-17T13:17:54.444Z,101510.38
2023-06-17T13:20:24.545Z,101499.60
2023-06-17T13:22:54.356Z,101502.41
2023-06-17T13:25:25.670Z,101499.13
2023-06-17T13:27:55.209Z,101498.92
2023-06-17T13:30:25.060Z,101486.14
2023-06-17T13:32:54.687Z,101489.55
2023-06-17T13:35:24.414Z,101485.58
2023-06-17T13:37:55.968Z,101494.41
2023-06-17T13:40:25.298Z,101486.23
2023-06-17T13:42:54.752Z,101484.47
2023-06-17T13:45:24.130Z,101478.38
2023-06-17T13:47:53.519Z,101483.24
2023-06-17T13:50:23.186Z,101479.41
2023-06-17T13:52:52.885Z,101471.93
2023-06-17T13:55:22.387Z,101478.77
2023-06-17T13:57:51.912Z,101470.12
2023-06-17T14:00:21.618Z,101471.66
2023-06-17T14:02:51.809Z,101474.29
2023-06-17T14:05:21.623Z,101475.23
2023-06-17T14:07:50.938Z,101474.83
2023-06-17T14:10:22.054Z,101467.86
2023-06-17T14:12:52.094Z,101470.48
2023-06-17T14:15:21.505Z,101471.72
2023-06-17T14:17:50.882Z,101472.70
2023-06-17T14:20:20.747Z,101465.47
2023-06-17T14:22:50.371Z,101466.52
2023-06-17T14:25:19.704Z,101474.20
2023-06-17T14:27:49.013Z,101466.98
2023-06-17T14:30:18.439Z,101467.84
2023-06-17T14:32:49.469Z,101465.33
2023-06-17T14:35:20.263Z,101465.38
2023-06-17T14:37:50.978Z,101465.34
2023-06-17T14:40:21.133Z,101460.71
2023-06-17T14:42:50.718Z,101464.18
2023-06-17T14:45:20.123Z,101458.80
2023-06-17T14:47:50.532Z,101459.08
2023-06-17T14:50:20.254Z,101458.13
2023-06-17T14:52:50.838Z,101457.76
2023-06-17T14:55:20.513Z,101456.47
2023-06-17T14:57:49.817Z,101462.83
2023-06-17T15:00:21.643Z,101463.17
2023-06-17T15:02:54.257Z,101459.55
2023-06-17T15:05:24.136Z,101458.45
2023-06-17T15:07:53.642Z,101458.36
2023-06-17T15:10:23.272Z,101451.17
2023-06-17T15:12:52.837Z,101451.06
2023-06-17T15:15:22.734Z,101445.53
2023-06-17T15:17:52.834Z,101448.56
2023-06-17T15:20:22.703Z,101450.95
2023-06-17T15:22:52.290Z,101444.02
2023-06-17T15:25:21.604Z,101442.94
2023-06-17T15:27:50.934Z,101440.78
2023-06-17T15:30:21.794Z,101437.77
2023-06-17T15:32:52.878Z,101435.33
2023-06-17T15:35:24.515Z,101441.15
2023-06-17T15:37:53.934Z,101434.48
2023-06-17T15:40:26.436Z,101434.02
2023-06-17T15:42:55.744Z,101431.19
2023-06-17T15:45:25.476Z,101431.47
2023-06-17T15:47:56.220Z,101421.27
2023-06-17T15:50:25.751Z,101428.69
2023-06-17T15:52:55.066Z,101429.08
2023-06-17T15:55:24.444Z,101422.63
2023-06-17T15:57:53.853Z,101422.84
2023-06-17T16:00:23.745Z,101425.92
2023-06-17T16:02:53.560Z,101418.20
2023-06-17T16:05:22.913Z,101419.89
2023-06-17T16:07:52.337Z,101415.66
2023-06-17T16:10:21.809Z,101411.25
2023-06-17T16:12:51.890Z,101411.56
2023-06-17T16:15:21.750Z,101410.30
2023-06-17T16:17:52.335Z,101410.44
2023-06-17T16:20:22.019Z,101409.89
2023-06-17T16:22:51.627Z,101415.02
2023-06-17T16:25:21.094Z,101409.69
2023-06-17T16:27:50.426Z,101408.36
2023-06-17T16:30:21.065Z,101406.52
2023-06-17T16:32:50.737Z,101411.02
2023-06-17T16:35:20.143Z,101405.16
2023-06-17T16:37:49.538Z,101404.66
2023-06-17T16:40:19.141Z,101397.44
2023-06-17T16:42:48.631Z,101394.59
2023-06-17T16:45:18.182Z,101393.52
2023-06-17T16:47:47.533Z,101390.22
2023-06-17T16:50:16.864Z,101394.68
2023-06-17T16:52:46.190Z,101392.64
2023-06-17T16:55:15.497Z,101391.79
2023-06-17T16:57:44.792Z,101387.55
2023-06-17T17:00:14.795Z,101389.14
2023-06-17T17:02:44.211Z,101380.91
2023-06-17T17:05:13.819Z,101378.73
2023-06-17T17:07:43.114Z,101387.11
2023-06-17T17:10:12.496Z,101384.84
2023-06-17T17:12:41.806Z,101376.48
2023-06-17T17:15:11.911Z,101373.18
2023-06-17T17:17:41.532Z,101369.99
2023-06-17T17:20:11.786Z,101370.97
2023-06-17T17:22:42.681Z,101369.66
2023-06-17T17:25:13.095Z,101364.86
2023-06-17T17:27:42.638Z,101372.30
2023-06-17T17:30:14.410Z,101368.09
2023-06-17T17:32:43.808Z,101369.37
2023-06-17T17:35:14.006Z,101363.50
2023-06-17T17:37:43.959Z,101363.78
2023-06-17T17:40:13.695Z,101364.06
2023-06-17T17:42:43.023Z,101361.95
2023-06-17T17:45:12.592Z,101360.67
2023-06-17T17:47:42.269Z,101359.82
2023-06-17T17:50:12.052Z,101369.19
2023-06-17T17:52:41.593Z,101367.84
2023-06-17T17:55:11.092Z,101358.77
2023-06-17T17:57:40.476Z,101368.87
2023-06-17T18:00:10.669Z,101367.94
2023-06-17T18:02:45.197Z,101368.77
2023-06-17T18:05:14.691Z,101369.48
2023-06-17T18:07:44.067Z,101369.53
2023-06-17T18:10:13.579Z,101375.39
2023-06-17T18:12:42.916Z,101371.19
2023-06-17T18:15:12.881Z,101375.23
2023-06-17T18:17:42.246Z,101382.51
2023-06-17T18:20:12.419Z,101374.72
2023-06-17T18:22:41.743Z,101372.31
2023-06-17T18:25:11.815Z,101363.61
2023-06-17T18:27:41.152Z,101369.59
2023-06-17T18:30:11.329Z,101369.80
2023-06-17T18:32:40.993Z,101370.03
2023-06-17T18:35:10.438Z,101369.68
2023-06-17T18:37:41.426Z,101372.52
2023-06-17T18:40:11.338Z,101371.91
2023-06-17T18:42:40.946Z,101375.34
2023-06-17T18:45:11.110Z,101375.53
2023-06-17T18:47:40.577Z,101380.16
2023-06-17T18:50:10.817Z,101374.06
2023-06-17T18:52:40.165Z,101370.02
2023-06-17T18:55:09.909Z,101372.02
2023-06-17T18:57:39.287Z,101371.64
2023-06-17T19:00:09.328Z,101371.70
2023-06-17T19:02:39.045Z,101370.45
2023-06-17T19:05:09.364Z,101365.89
2023-06-17T19:07:40.360Z,101364.78
2023-06-17T19:10:10.374Z,101365.87
2023-06-17T19:12:40.284Z,101362.87
2023-06-17T19:15:11.561Z,101365.48
2023-06-17T19:17:40.957Z,101365.28
2023-06-17T19:20:11.364Z,101363.23
2023-06-17T19:22:41.783Z,101364.80
2023-06-17T19:25:11.388Z,101373.31
2023-06-17T19:27:40.737Z,101364.94
2023-06-17T19:30:10.736Z,101370.95
2023-06-17T19:32:40.125Z,101363.52
2023-06-17T19:35:10.161Z,101365.96
2023-06-17T19:37:39.868Z,101365.91
2023-06-17T19:40:10.061Z,101361.92
2023-06-17T19:42:39.404Z,101367.09
2023-06-17T19:45:10.800Z,101367.31
2023-06-17T19:47:40.280Z,101362.26
2023-06-17T19:50:10.057Z,101364.31
2023-06-17T19:52:39.403Z,101367.42
2023-06-17T19:55:09.405Z,101362.79
2023-06-17T19:57:38.838Z,101375.19
2023-06-17T20:00:09.945Z,101370.83
2023-06-17T20:02:42.659Z,101370.84
2023-06-17T20:05:12.875Z,101380.14
2023-06-17T20:07:42.283Z,101383.47
2023-06-17T20:10:11.830Z,101385.82
2023-06-17T20:12:41.178Z,101386.52
2023-06-17T20:15:11.326Z,101389.66
2023-06-17T20:17:40.940Z,101394.30
2023-06-17T20:20:12.334Z,101388.20
2023-06-17T20:22:42.304Z,101391.56
2023-06-17T20:25:11.777Z,101386.09
2023-06-17T20:27:42.826Z,101389.71
2023-06-17T20:30:13.032Z,101386.22
2023-06-17T20:32:43.257Z,101389.03
2023-06-17T20:35:12.782Z,101391.72
2023-06-17T20:37:44.080Z,101388.52
2023-06-17T20:40:13.728Z,101384.06
2023-06-17T20:42:43.027Z,101383.00
2023-06-17T20:45:12.651Z,101377.49
2023-06-17T20:47:42.087Z,101377.49
2023-06-17T20:50:12.718Z,101387.40
2023-06-17T20:52:42.047Z,101387.40
2023-06-17T20:55:11.655Z,101383.03
2023-06-17T20:57:41.061Z,101384.08
2023-06-17T21:00:11.308Z,101389.61
2023-06-17T21:02:41.316Z,101382.80
2023-06-17T21:05:11.124Z,101386.63
2023-06-17T21:07:40.680Z,101380.75
2023-06-17T21:10:11.229Z,101375.05
2023-06-17T21:12:40.562Z,101375.80
2023-06-17T21:15:10.975Z,101381.07
2023-06-17T21:17:40.490Z,101374.31
2023-06-17T21:20:10.852Z,101370.14
2023-06-17T21:22:40.251Z,101376.15
2023-06-17T21:25:10.353Z,101374.47
2023-06-17T21:27:39.679Z,101376.80
2023-06-17T21:30:09.669Z,101379.39
2023-06-17T21:32:39.028Z,101382.31
2023-06-17T21:35:09.082Z,101383.66
2023-06-17T21:37:38.752Z,101384.45
2023-06-17T21:40:10.038Z,101378.34
2023-06-17T21:42:40.139Z,101386.00
2023-06-17T21:45:10.628Z,101380.48
2023-06-17T21:47:39.997Z,101370.81
2023-06-17T21:50:10.233Z,101379.66
2023-06-17T21:52:39.563Z,101378.80
2023-06-17T21:55:09.653Z,101379.00
2023-06-17T21:57:38.961Z,101373.42
2023-06-17T22:00:10.242Z,101373.42
2023-06-17T22:02:43.108Z,101384.53
2023-06-17T22:05:12.618Z,101378.47
2023-06-17T22:07:42.017Z,101373.13
2023-06-17T22:10:11.683Z,101375.25
2023-06-17T22:12:41.010Z,101364.41
2023-06-17T22:15:10.999Z,101364.41
2023-06-17T22:17:40.323Z,101370.15
2023-06-17T22:20:10.378Z,101371.11
2023-06-17T22:22:39.682Z,101372.30
2023-06-17T22:25:09.646Z,101367.14
2023-06-17T22:27:38.928Z,101368.03
2023-06-17T22:30:09.169Z,101361.56
2023-06-17T22:32:38.520Z,101359.61
2023-06-17T22:35:08.386Z,101357.81
2023-06-17T22:37:37.676Z,101365.39
2023-06-17T22:40:08.979Z,101357.84
2023-06-17T22:42:38.319Z,101351.53
2023-06-17T22:45:08.242Z,101354.66
2023-06-17T22:47:37.562Z,101360.33
2023-06-17T22:50:08.209Z,101359.83
2023-06-17T22:52:37.773Z,101361.17
2023-06-17T22:55:07.675Z,101361.17
2023-06-17T22:57:38.595Z,101366.59
2023-06-17T23:00:09.375Z,101366.59
2023-06-17T23:02:38.737Z,101357.41
2023-06-17T23:05:08.738Z,101365.84
2023-06-17T23:07:38.019Z,101359.33
2023-06-17T23:10:08.132Z,101355.13
2023-06-17T23:12:37.433Z,101351.42
2023-06-17T23:15:07.322Z,101352.30
2023-06-17T23:17:36.717Z,101351.72
2023-06-17T23:20:07.084Z,101352.09
2023-06-17T23:22:36.969Z,101354.72
2023-06-17T23:25:08.388Z,101351.95
2023-06-17T23:27:38.036Z,101350.09
2023-06-17T23:30:08.634Z,101355.82
2023-06-17T23:32:38.755Z,101349.67
2023-06-17T23:35:09.596Z,101349.73
2023-06-17T23:37:38.907Z,101351.07
2023-06-17T23:40:09.845Z,101349.30
2023-06-17T23:42:39.175Z,101349.85
2023-06-17T23:45:11.145Z,101346.92
2023-06-17T23:47:41.083Z,101347.41
2023-06-17T23:50:11.181Z,101345.11
2023-06-17T23:52:40.618Z,101346.57
2023-06-17T23:55:10.493Z,101348.75
2023-06-17T23:57:41.634Z,101344.16
